createdAt,value
2022-10-22T00:01:20.141Z,75.60
2022-10-22T00:03:54.137Z,75.60
2022-10-22T00:06:22.216Z,75.60
2022-10-22T00:08:56.167Z,75.60
2022-10-22T00:11:23.386Z,75.70
2022-10-22T00:13:51.246Z,75.90
2022-10-22T00:16:25.067Z,75.70
2022-10-22T00:18:59.037Z,75.70
2022-10-22T00:21:36.391Z,75.60
2022-10-22T00:24:10.091Z,75.80
2022-10-22T00:26:51.041Z,75.90
2022-10-22T00:29:31.112Z,76.00
2022-10-22T00:32:05.021Z,76.20
2022-10-22T00:34:32.472Z,76.20
2022-10-22T00:37:06.039Z,76.20
2022-10-22T00:39:40.051Z,76.00
2022-10-22T00:42:07.341Z,75.80
2022-10-22T00:45:09.570Z,75.80
2022-10-22T00:47:58.169Z,75.90
2022-10-22T00:50:43.178Z,76.00
2022-10-22T00:53:17.999Z,76.20
2022-10-22T00:55:55.081Z,76.30
2022-10-22T00:58:26.878Z,76.00
2022-10-22T01:01:02.235Z,76.00
2022-10-22T01:03:29.818Z,76.10
2022-10-22T01:06:10.178Z,76.00
2022-10-22T01:09:10.395Z,76.00
2022-10-22T01:12:15.439Z,76.00
2022-10-22T01:15:36.939Z,76.20
2022-10-22T01:18:18.292Z,76.40
2022-10-22T01:21:38.152Z,76.30
2022-10-22T01:24:54.070Z,76.10
2022-10-22T01:28:15.200Z,76.00
2022-10-22T01:30:45.269Z,76.10
2022-10-22T01:33:22.087Z,76.10
2022-10-22T01:35:50.849Z,76.10
2022-10-22T01:38:29.530Z,76.30
2022-10-22T01:40:57.820Z,76.40
2022-10-22T01:43:32.430Z,76.20
2022-10-22T01:46:04.021Z,76.10
2022-10-22T01:49:20.079Z,76.00
2022-10-22T01:52:00.879Z,76.20
2022-10-22T01:54:51.189Z,76.30
2022-10-22T01:57:44.688Z,76.20
2022-10-22T02:00:24.439Z,76.30
2022-10-22T02:03:37.119Z,76.30
2022-10-22T02:06:10.397Z,76.50
2022-10-22T02:08:46.220Z,76.60
2022-10-22T02:11:16.171Z,76.70
2022-10-22T02:14:00.458Z,76.70
2022-10-22T02:16:46.521Z,76.50
2022-10-22T02:19:26.150Z,76.50
2022-10-22T02:22:01.149Z,76.70
2022-10-22T02:24:28.798Z,76.60
2022-10-22T02:27:40.148Z,76.50
2022-10-22T02:30:18.419Z,76.50
2022-10-22T02:33:10.155Z,76.50
2022-10-22T02:35:48.147Z,76.60
2022-10-22T02:38:23.220Z,76.60
2022-10-22T02:40:57.071Z,76.60
2022-10-22T02:43:25.770Z,76.80
2022-10-22T02:46:00.459Z,76.70
2022-10-22T02:48:27.731Z,76.80
2022-10-22T02:51:01.219Z,76.80
2022-10-22T02:53:28.593Z,76.80
2022-10-22T02:56:02.119Z,76.80
2022-10-22T02:58:29.588Z,76.80
2022-10-22T03:01:03.205Z,76.90
2022-10-22T03:03:30.688Z,77.00
2022-10-22T03:05:58.080Z,76.90
2022-10-22T03:08:32.235Z,76.90
2022-10-22T03:10:59.540Z,76.70
2022-10-22T03:13:26.700Z,76.70
2022-10-22T03:16:00.430Z,76.60
2022-10-22T03:18:27.620Z,76.50
2022-10-22T03:21:38.303Z,76.50
2022-10-22T03:24:20.339Z,76.40
2022-10-22T03:27:07.619Z,76.10
2022-10-22T03:29:47.190Z,76.20
2022-10-22T03:32:21.128Z,76.30
2022-10-22T03:34:48.376Z,76.40
2022-10-22T03:37:22.141Z,76.50
2022-10-22T03:39:50.000Z,76.60
2022-10-22T03:42:24.319Z,76.50
2022-10-22T03:44:58.310Z,76.60
2022-10-22T03:47:32.239Z,76.80
2022-10-22T03:49:59.679Z,76.70
2022-10-22T03:52:26.929Z,76.70
2022-10-22T03:55:01.522Z,76.70
2022-10-22T03:57:28.700Z,76.70
2022-10-22T04:00:03.075Z,76.70
2022-10-22T04:02:30.489Z,76.70
2022-10-22T04:05:04.241Z,76.80
2022-10-22T04:07:31.477Z,77.00
2022-10-22T04:10:05.079Z,77.00
2022-10-22T04:12:32.709Z,77.00
2022-10-22T04:15:06.220Z,77.10
2022-10-22T04:17:38.771Z,77.00
2022-10-22T04:20:13.149Z,77.00
2022-10-22T04:22:40.320Z,77.10
2022-10-22T04:25:14.180Z,77.20
2022-10-22T04:27:48.561Z,77.00
2022-10-22T04:30:21.929Z,76.90
2022-10-22T04:32:56.249Z,77.00
2022-10-22T04:35:30.199Z,76.90
2022-10-22T04:38:05.439Z,76.80
2022-10-22T04:40:32.679Z,77.00
2022-10-22T04:43:06.379Z,77.20
2022-10-22T04:45:35.538Z,77.30
2022-10-22T04:48:09.159Z,77.30
2022-10-22T04:50:36.480Z,77.30
2022-10-22T04:53:03.693Z,77.10
2022-10-22T04:55:37.243Z,77.00
2022-10-22T04:58:05.386Z,77.00
2022-10-22T05:00:39.207Z,77.00
2022-10-22T05:03:14.629Z,76.90
2022-10-22T05:05:42.090Z,77.00
2022-10-22T05:08:16.100Z,77.00
2022-10-22T05:10:43.308Z,77.10
2022-10-22T05:13:17.201Z,77.10
2022-10-22T05:15:44.402Z,77.20
2022-10-22T05:18:21.775Z,77.30
2022-10-22T05:20:49.949Z,77.30
2022-10-22T05:23:24.204Z,77.30
2022-10-22T05:25:51.349Z,77.10
2022-10-22T05:28:32.187Z,77.00
2022-10-22T05:31:08.111Z,77.20
2022-10-22T05:33:42.118Z,77.20
2022-10-22T05:36:20.167Z,77.30
2022-10-22T05:38:47.658Z,77.30
2022-10-22T05:41:27.449Z,77.30
2022-10-22T05:44:00.058Z,77.30
2022-10-22T05:46:37.149Z,77.40
2022-10-22T05:49:08.674Z,77.30
2022-10-22T05:51:44.371Z,77.20
2022-10-22T05:54:22.769Z,77.20
2022-10-22T05:56:56.099Z,77.20
2022-10-22T05:59:23.709Z,77.20
2022-10-22T06:01:57.228Z,77.20
2022-10-22T06:04:31.159Z,77.20
2022-10-22T06:06:58.642Z,77.40
2022-10-22T06:09:40.190Z,77.40
2022-10-22T06:12:11.218Z,77.40
2022-10-22T06:14:45.090Z,77.40
2022-10-22T06:17:14.358Z,77.40
2022-10-22T06:19:49.233Z,77.50
2022-10-22T06:22:23.196Z,77.50
2022-10-22T06:24:57.249Z,77.50
2022-10-22T06:27:31.578Z,77.60
2022-10-22T06:30:05.228Z,77.70
2022-10-22T06:32:39.382Z,77.90
2022-10-22T06:35:07.671Z,77.90
2022-10-22T06:37:41.296Z,78.10
2022-10-22T06:40:09.538Z,78.20
2022-10-22T06:42:43.484Z,78.30
2022-10-22T06:45:11.560Z,78.30
2022-10-22T06:47:45.599Z,78.40
2022-10-22T06:50:12.861Z,78.50
2022-10-22T06:52:47.159Z,78.60
2022-10-22T06:55:14.680Z,78.80
2022-10-22T06:57:48.451Z,79.00
2022-10-22T07:00:15.879Z,79.00
2022-10-22T07:02:50.141Z,79.30
2022-10-22T07:05:17.479Z,79.40
2022-10-22T07:07:51.069Z,79.40
2022-10-22T07:10:18.588Z,79.40
2022-10-22T07:12:52.149Z,79.60
2022-10-22T07:15:19.949Z,79.70
2022-10-22T07:17:54.270Z,79.70
2022-10-22T07:20:21.928Z,79.70
2022-10-22T07:22:56.528Z,79.80
2022-10-22T07:25:24.259Z,79.80
2022-10-22T07:28:00.259Z,80.00
2022-10-22T07:30:35.319Z,80.10
2022-10-22T07:33:09.578Z,80.10
2022-10-22T07:35:39.798Z,80.20
2022-10-22T07:38:15.261Z,80.30
2022-10-22T07:40:42.738Z,80.40
2022-10-22T07:43:16.479Z,80.50
2022-10-22T07:45:43.909Z,80.50
2022-10-22T07:48:18.158Z,80.60
2022-10-22T07:50:45.415Z,80.60
2022-10-22T07:53:19.469Z,80.70
2022-10-22T07:55:50.097Z,80.90
2022-10-22T07:58:25.194Z,81.10
2022-10-22T08:00:55.288Z,81.30
2022-10-22T08:03:29.349Z,81.60
2022-10-22T08:06:03.168Z,81.70
2022-10-22T08:08:31.103Z,81.70
2022-10-22T08:11:07.229Z,81.90
2022-10-22T08:13:45.027Z,82.00
2022-10-22T08:16:13.240Z,82.00
2022-10-22T08:18:47.270Z,82.10
2022-10-22T08:21:14.578Z,82.20
2022-10-22T08:23:49.204Z,82.20
2022-10-22T08:26:16.562Z,82.30
2022-10-22T08:28:57.221Z,82.30
2022-10-22T08:31:24.512Z,82.40
2022-10-22T08:33:58.173Z,82.30
2022-10-22T08:36:25.471Z,82.40
2022-10-22T08:38:59.176Z,82.50
2022-10-22T08:41:27.182Z,82.50
2022-10-22T08:44:01.192Z,82.60
2022-10-22T08:46:53.196Z,82.60
2022-10-22T08:49:42.087Z,82.70
2022-10-22T08:52:18.418Z,82.80
2022-10-22T08:55:05.201Z,82.90
2022-10-22T08:57:39.699Z,82.90
2022-10-22T09:00:27.066Z,83.10
2022-10-22T09:03:14.742Z,83.10
2022-10-22T09:06:22.279Z,83.20
2022-10-22T09:08:56.282Z,83.30
2022-10-22T09:11:32.459Z,83.30
2022-10-22T09:14:08.136Z,83.10
2022-10-22T09:16:52.157Z,83.10
2022-10-22T09:19:39.121Z,83.00
2022-10-22T09:22:39.343Z,83.00
2022-10-22T09:25:25.501Z,82.90
2022-10-22T09:28:12.517Z,82.90
2022-10-22T09:30:40.698Z,82.90
2022-10-22T09:33:24.018Z,82.80
2022-10-22T09:36:10.112Z,82.90
2022-10-22T09:38:52.201Z,83.00
2022-10-22T09:41:30.128Z,83.10
2022-10-22T09:44:05.227Z,83.20
2022-10-22T09:46:46.043Z,83.30
2022-10-22T09:49:23.222Z,83.40
2022-10-22T09:52:02.326Z,83.30
2022-10-22T09:54:32.388Z,83.40
2022-10-22T09:57:14.203Z,83.50
2022-10-22T09:59:44.704Z,83.60
2022-10-22T10:02:38.342Z,83.70
2022-10-22T10:05:08.624Z,83.70
2022-10-22T10:07:44.726Z,83.80
2022-10-22T10:10:21.743Z,83.90
2022-10-22T10:13:24.355Z,84.00
2022-10-22T10:15:57.810Z,84.00
2022-10-22T10:18:59.284Z,84.00
2022-10-22T10:21:39.743Z,84.00
2022-10-22T10:24:45.548Z,84.10
2022-10-22T10:27:54.270Z,84.10
2022-10-22T10:30:28.146Z,84.10
2022-10-22T10:33:26.663Z,84.10
2022-10-22T10:36:13.183Z,84.10
2022-10-22T10:39:12.563Z,84.10
2022-10-22T10:42:12.234Z,84.00
2022-10-22T10:45:05.043Z,84.10
2022-10-22T10:47:48.269Z,84.20
2022-10-22T10:51:01.313Z,84.20
2022-10-22T10:54:03.528Z,84.30
2022-10-22T10:56:50.104Z,84.30
2022-10-22T10:59:29.399Z,84.20
2022-10-22T11:02:27.426Z,84.30
2022-10-22T11:05:32.324Z,84.30
2022-10-22T11:08:18.064Z,84.30
2022-10-22T11:10:56.543Z,84.40
2022-10-22T11:13:30.364Z,84.60
2022-10-22T11:16:20.509Z,84.60
2022-10-22T11:19:22.731Z,84.70
2022-10-22T11:22:23.431Z,84.80
2022-10-22T11:25:42.283Z,84.80
2022-10-22T11:28:37.175Z,84.70
2022-10-22T11:31:25.603Z,84.80
2022-10-22T11:34:33.715Z,84.80
2022-10-22T11:37:10.344Z,84.90
2022-10-22T11:40:01.503Z,84.80
2022-10-22T11:42:38.174Z,84.90
2022-10-22T11:45:32.325Z,84.90
2022-10-22T11:48:11.484Z,85.00
2022-10-22T11:51:07.309Z,85.20
2022-10-22T11:53:42.330Z,85.30
2022-10-22T11:56:17.624Z,85.30
2022-10-22T11:58:54.674Z,85.30
2022-10-22T12:04:40.107Z,85.40
2022-10-22T12:07:54.204Z,85.50
2022-10-22T12:10:26.369Z,85.60
2022-10-22T12:13:12.544Z,85.70
2022-10-22T12:15:56.324Z,85.80
2022-10-22T12:18:29.124Z,85.90
2022-10-22T12:21:03.264Z,86.00
2022-10-22T12:23:34.644Z,86.10
2022-10-22T12:26:10.595Z,86.20
2022-10-22T12:28:54.284Z,86.20
2022-10-22T12:31:29.324Z,86.20
2022-10-22T12:34:04.363Z,86.30
2022-10-22T12:36:40.315Z,86.50
2022-10-22T12:39:17.325Z,86.50
2022-10-22T12:41:52.167Z,86.50
2022-10-22T12:44:26.316Z,86.50
2022-10-22T12:46:56.964Z,86.60
2022-10-22T12:49:42.305Z,86.60
2022-10-22T12:52:26.276Z,86.60
2022-10-22T12:54:55.208Z,86.60
2022-10-22T12:57:29.312Z,86.60
2022-10-22T13:00:03.297Z,86.60
2022-10-22T13:02:37.214Z,86.70
2022-10-22T13:05:24.437Z,86.70
2022-10-22T13:08:01.454Z,86.60
2022-10-22T13:10:41.276Z,86.60
2022-10-22T13:13:28.695Z,86.60
2022-10-22T13:16:03.225Z,86.60
2022-10-22T13:18:41.486Z,86.60
2022-10-22T13:21:29.244Z,86.60
2022-10-22T13:24:09.195Z,86.60
2022-10-22T13:26:44.293Z,86.70
2022-10-22T13:29:18.644Z,86.70
2022-10-22T13:32:00.211Z,86.70
2022-10-22T13:34:28.374Z,86.60
2022-10-22T13:37:02.495Z,86.60
2022-10-22T13:39:29.980Z,86.70
2022-10-22T13:42:04.239Z,86.70
2022-10-22T13:44:31.470Z,86.70
2022-10-22T13:47:05.408Z,86.70
2022-10-22T13:49:32.733Z,86.70
2022-10-22T13:52:08.479Z,86.70
2022-10-22T13:54:45.338Z,86.70
2022-10-22T13:57:19.578Z,86.60
2022-10-22T13:59:47.048Z,86.60
2022-10-22T14:02:21.388Z,86.60
2022-10-22T14:04:48.559Z,86.70
2022-10-22T14:07:23.358Z,86.60
2022-10-22T14:09:50.748Z,86.70
2022-10-22T14:12:24.269Z,86.60
2022-10-22T14:14:51.608Z,86.60
2022-10-22T14:17:26.140Z,86.60
2022-10-22T14:20:00.903Z,86.60
2022-10-22T14:22:29.418Z,86.60
2022-10-22T14:25:03.303Z,86.60
2022-10-22T14:27:38.785Z,86.70
2022-10-22T14:30:29.484Z,86.80
2022-10-22T14:33:05.216Z,86.80
2022-10-22T14:35:32.662Z,86.90
2022-10-22T14:38:06.805Z,86.90
2022-10-22T14:40:40.230Z,87.00
2022-10-22T14:43:07.437Z,87.00
2022-10-22T14:45:41.185Z,87.10
2022-10-22T14:48:08.882Z,87.20
2022-10-22T14:50:42.170Z,87.30
2022-10-22T14:53:09.437Z,87.40
2022-10-22T14:55:37.119Z,87.40
2022-10-22T14:58:11.252Z,87.30
2022-10-22T15:00:40.809Z,87.30
2022-10-22T15:03:14.357Z,87.30
2022-10-22T15:05:44.746Z,87.30
2022-10-22T15:08:20.302Z,87.20
2022-10-22T15:11:04.381Z,87.20
2022-10-22T15:13:39.348Z,87.30
2022-10-22T15:16:16.462Z,87.20
2022-10-22T15:18:50.657Z,87.20
2022-10-22T15:21:27.291Z,87.10
2022-10-22T15:23:54.752Z,87.10
2022-10-22T15:26:28.281Z,87.10
2022-10-22T15:29:02.197Z,87.10
2022-10-22T15:31:54.841Z,87.10
2022-10-22T15:34:31.166Z,87.10
2022-10-22T15:37:01.337Z,87.10
2022-10-22T15:39:36.728Z,87.10
2022-10-22T15:42:10.295Z,87.10
2022-10-22T15:44:46.201Z,87.20
2022-10-22T15:47:13.315Z,87.20
2022-10-22T15:49:49.161Z,87.20
2022-10-22T15:52:23.529Z,87.30
2022-10-22T15:54:50.747Z,87.40
2022-10-22T15:57:17.943Z,87.50
2022-10-22T15:59:52.225Z,87.50
2022-10-22T16:02:19.475Z,87.30
2022-10-22T16:04:53.317Z,87.20
2022-10-22T16:07:23.880Z,87.20
2022-10-22T16:10:02.649Z,87.30
2022-10-22T16:12:30.317Z,87.20
2022-10-22T16:15:04.201Z,87.30
2022-10-22T16:17:31.393Z,87.40
2022-10-22T16:20:05.368Z,87.40
2022-10-22T16:22:34.110Z,87.60
2022-10-22T16:25:08.217Z,87.60
2022-10-22T16:27:35.431Z,87.60
2022-10-22T16:30:16.302Z,87.90
2022-10-22T16:32:43.565Z,88.10
2022-10-22T16:35:19.223Z,88.20
2022-10-22T16:37:47.200Z,88.30
2022-10-22T16:40:21.303Z,88.40
2022-10-22T16:42:55.308Z,88.40
2022-10-22T16:45:29.518Z,88.40
2022-10-22T16:47:57.489Z,88.20
2022-10-22T16:50:31.326Z,88.10
2022-10-22T16:52:58.523Z,88.00
2022-10-22T16:55:32.199Z,88.00
2022-10-22T16:57:59.309Z,88.00
2022-10-22T17:00:33.292Z,87.90
2022-10-22T17:03:00.699Z,87.80
2022-10-22T17:05:34.286Z,87.80
2022-10-22T17:08:01.984Z,87.70
2022-10-22T17:10:36.446Z,87.70
2022-10-22T17:13:04.516Z,87.80
2022-10-22T17:15:39.262Z,87.70
2022-10-22T17:18:07.968Z,87.40
2022-10-22T17:20:41.529Z,87.30
2022-10-22T17:23:10.422Z,87.40
2022-10-22T17:25:50.279Z,87.30
2022-10-22T17:28:37.199Z,87.50
2022-10-22T17:31:13.379Z,87.40
2022-10-22T17:33:40.700Z,87.20
2022-10-22T17:36:17.905Z,87.00
2022-10-22T17:38:58.474Z,87.20
2022-10-22T17:41:37.355Z,87.30
2022-10-22T17:44:09.367Z,87.20
2022-10-22T17:46:44.355Z,87.00
2022-10-22T17:49:28.654Z,87.00
2022-10-22T17:51:56.907Z,87.40
2022-10-22T17:54:30.313Z,87.70
2022-10-22T17:57:04.536Z,87.80
2022-10-22T17:59:33.134Z,87.80
2022-10-22T18:02:09.259Z,87.70
2022-10-22T18:04:36.758Z,87.70
2022-10-22T18:07:10.874Z,87.50
2022-10-22T18:09:39.394Z,87.10
2022-10-22T18:12:13.764Z,87.10
2022-10-22T18:14:41.556Z,87.10
2022-10-22T18:17:18.255Z,87.00
2022-10-22T18:19:46.854Z,86.70
2022-10-22T18:22:21.714Z,86.60
2022-10-22T18:24:49.213Z,86.70
2022-10-22T18:27:23.494Z,86.60
2022-10-22T18:30:04.614Z,86.60
2022-10-22T18:32:40.613Z,86.80
2022-10-22T18:35:15.339Z,86.80
2022-10-22T18:37:43.042Z,87.00
2022-10-22T18:40:17.479Z,87.00
2022-10-22T18:42:46.158Z,87.00
2022-10-22T18:45:20.394Z,87.00
2022-10-22T18:47:47.894Z,86.70
2022-10-22T18:50:15.494Z,86.40
2022-10-22T18:52:49.493Z,86.30
2022-10-22T18:55:17.036Z,86.30
2022-10-22T18:57:52.336Z,86.10
2022-10-22T19:00:20.079Z,85.90
2022-10-22T19:02:55.414Z,85.80
2022-10-22T19:05:30.073Z,85.60
2022-10-22T19:08:04.415Z,85.60
2022-10-22T19:10:34.694Z,85.70
2022-10-22T19:13:08.334Z,85.70
2022-10-22T19:15:35.564Z,85.80
2022-10-22T19:18:09.314Z,85.70
2022-10-22T19:20:37.434Z,85.40
2022-10-22T19:23:11.889Z,85.50
2022-10-22T19:25:39.414Z,85.70
2022-10-22T19:28:14.490Z,85.90
2022-10-22T19:30:47.618Z,85.60
2022-10-22T19:33:22.855Z,85.10
2022-10-22T19:35:57.691Z,85.00
2022-10-22T19:38:49.021Z,84.90
2022-10-22T19:41:32.337Z,84.90
2022-10-22T19:44:22.895Z,84.80
2022-10-22T19:46:50.710Z,84.80
2022-10-22T19:49:25.568Z,84.80
2022-10-22T19:51:52.944Z,84.80
2022-10-22T19:54:27.389Z,84.90
2022-10-22T19:56:55.115Z,84.90
2022-10-22T19:59:32.237Z,84.90
2022-10-22T20:02:00.618Z,84.90
2022-10-22T20:04:36.569Z,84.70
2022-10-22T20:07:05.114Z,84.90
2022-10-22T20:09:40.852Z,84.90
2022-10-22T20:12:15.715Z,84.60
2022-10-22T20:14:51.574Z,84.50
2022-10-22T20:17:25.350Z,84.40
2022-10-22T20:19:53.204Z,84.40
2022-10-22T20:22:27.524Z,84.30
2022-10-22T20:24:56.364Z,84.20
2022-10-22T20:27:30.711Z,84.00
2022-10-22T20:30:04.402Z,84.20
2022-10-22T20:32:38.589Z,84.40
2022-10-22T20:35:14.839Z,84.20
2022-10-22T20:37:49.340Z,84.30
2022-10-22T20:40:16.889Z,84.30
2022-10-22T20:42:50.275Z,84.10
2022-10-22T20:45:17.888Z,83.80
2022-10-22T20:47:58.344Z,83.70
2022-10-22T20:50:40.279Z,83.50
2022-10-22T20:53:07.904Z,83.70
2022-10-22T20:55:42.303Z,83.50
2022-10-22T20:58:16.285Z,83.40
2022-10-22T21:00:44.485Z,83.50
2022-10-22T21:03:19.484Z,83.50
2022-10-22T21:05:46.764Z,83.40
2022-10-22T21:08:24.343Z,83.40
2022-10-22T21:10:51.879Z,83.30
2022-10-22T21:13:26.357Z,83.30
2022-10-22T21:15:53.582Z,83.30
2022-10-22T21:18:27.278Z,83.20
2022-10-22T21:21:01.334Z,83.20
2022-10-22T21:23:28.748Z,83.40
2022-10-22T21:26:04.278Z,83.10
2022-10-22T21:28:52.349Z,82.90
2022-10-22T21:31:28.395Z,82.80
2022-10-22T21:33:55.973Z,82.80
2022-10-22T21:36:30.500Z,82.90
2022-10-22T21:38:58.133Z,82.90
2022-10-22T21:41:32.360Z,82.90
2022-10-22T21:44:00.444Z,82.80
2022-10-22T21:46:36.503Z,82.90
2022-10-22T21:49:11.349Z,82.70
2022-10-22T21:51:38.693Z,82.60
2022-10-22T21:54:12.379Z,82.50
2022-10-22T21:56:39.862Z,82.60
2022-10-22T21:59:14.315Z,82.70
2022-10-22T22:01:41.562Z,82.50
2022-10-22T22:04:15.275Z,82.40
2022-10-22T22:06:42.628Z,82.70
2022-10-22T22:09:16.407Z,82.80
2022-10-22T22:11:43.733Z,82.80
2022-10-22T22:14:18.341Z,82.60
2022-10-22T22:16:45.957Z,82.30
2022-10-22T22:19:19.553Z,81.60
2022-10-22T22:21:53.398Z,81.50
2022-10-22T22:24:27.372Z,81.40
2022-10-22T22:27:01.394Z,81.50
2022-10-22T22:29:48.402Z,81.50
2022-10-22T22:32:22.489Z,81.40
2022-10-22T22:34:56.537Z,81.40
2022-10-22T22:37:31.388Z,81.60
2022-10-22T22:40:05.823Z,81.60
2022-10-22T22:42:39.374Z,81.90
2022-10-22T22:45:13.536Z,81.70
2022-10-22T22:47:47.448Z,81.20
2022-10-22T22:50:21.418Z,81.10
2022-10-22T22:52:48.778Z,81.00
2022-10-22T22:55:24.399Z,81.00
2022-10-22T22:57:51.447Z,81.00
2022-10-22T23:00:25.375Z,81.10
2022-10-22T23:02:56.527Z,81.10
2022-10-22T23:05:30.371Z,81.10
2022-10-22T23:07:57.715Z,81.20
2022-10-22T23:10:31.506Z,81.30
2022-10-22T23:12:58.661Z,81.30
2022-10-22T23:15:32.304Z,81.20
2022-10-22T23:18:06.433Z,81.00
2022-10-22T23:20:40.416Z,80.80
2022-10-22T23:23:08.002Z,80.70
2022-10-22T23:25:41.380Z,80.60
2022-10-22T23:28:08.424Z,80.80
2022-10-22T23:30:52.707Z,80.80
2022-10-22T23:33:26.529Z,81.10
2022-10-22T23:36:01.039Z,81.40
2022-10-22T23:38:37.208Z,81.60
2022-10-22T23:41:05.857Z,81.50
2022-10-22T23:43:44.517Z,81.60
2022-10-22T23:46:21.439Z,81.80
2022-10-22T23:48:49.300Z,82.00
2022-10-22T23:51:24.515Z,82.00
2022-10-22T23:54:11.289Z,81.90
2022-10-22T23:56:45.329Z,81.80
